Red Bluff, CA (96080)

4:16 PM PDT on September 22, 2014 (GMT -0700)
Red Bluff Municipal | Change Station
CLOSE
Current Station
Airport
Location: Red Bluff,
Elevation: 351 ft
Nearby Weather Stations

Elev 351 ft 40.15 °N, 122.25 °W | Updated 22 minutes ago

Clear
Clear
87 °F
Feels Like 85 °F
N
13
Wind Variable Wind from South

Today
High -- | Low -- °F
--% Chance of Precip.
Yesterday
High -- | Low -- °F
Precip. -- in
6:56 AM 7:05 PM
Waning Crescent, 2% visible
Pressure 29.89 in
Visibility 10.0 miles
Clouds Clear
Heat Index 85 °F
Dew Point 55 °F
Humidity 33%
Rainfall 0.00 in
Snow Depth 0 in , 0 in , 0 in
UV 4 out of 12
Pollen 5.50 out of 12
Air Quality Not available.
Flu Activity Not available.
METAR KRBL 222254Z AUTO 17011KT 10SM CLR 31/13 A2990 RMK AO2 SLP121 T03060128

More Conditions Fewer Conditions

Pressure 29.89 in
Visibility 10.0 miles
Clouds Clear
Heat Index 85 °F
Dew Point 55 °F
Humidity 33%
Rainfall 0.00 in
Snow Depth 0 in , 0 in , 0 in
UV 4 out of 12
Pollen 5.50 out of 12
Air Quality Not available.
Flu Activity Not available.
METAR KRBL 222254Z AUTO 17011KT 10SM CLR 31/13 A2990 RMK AO2 SLP121 T03060128

More Conditions Fewer Conditions

10-Day Weather Forecast

Almanac

Astronomy

Sep. 22, 2014 Rise Set
Actual Time 6:56 AM PDT 7:05 PM PDT
Civil Twilight 6:29 AM PDT 7:33 PM PDT
Nautical Twilight 5:57 AM PDT 8:04 PM PDT
Astronomical Twilight 5:25 AM PDT 8:36 PM PDT
Moon 5:30 AM PDT 6:16 PM PDT
Length of Visible Light 13h 03m
Length of Day
12h 09m
Tomorrow will be 2m 38s shorter.
Waning Crescent, 2% of the Moon is Illuminated
Today
Waning Crescent
Sep 24
New
Oct 1
First Quarter
Oct 8
Full
Oct 15
Last Quarter

Today's Extremes

State Highs State Lows

Community

WunderPhotos

Upload Photos

1,755,548 photos uploaded!

Nearby

Snow Depth

Station Depth Elevation
Leavitt Meadows 0 in 7200 ft
Burnside Lake 0 in 8139 ft
Adin Mountain 0 in 6200 ft

Earthquake Activity

City Distance Mag. Time & Date
Yountville, California 127 miles 2.6 1:17 PM PDT
2014-09-21
Minimum magnitude displayed is 2.5.

Coastal Water Temperatures

Place Temperature
No Stations Reporting

Nearby Weather Stations